sensor_id;sensor_type;location;lat;lon;timestamp;P1;durP1;ratioP1;P2;durP2;ratioP2
11827;SDS011;5971;49.646;8.568;2023-02-28T00:02:49;2.83;;;2.63;;
11827;SDS011;5971;49.646;8.568;2023-02-28T00:05:51;2.88;;;2.58;;
11827;SDS011;5971;49.646;8.568;2023-02-28T00:08:52;2.67;;;2.08;;
11827;SDS011;5971;49.646;8.568;2023-02-28T00:11:54;2.45;;;2.25;;
11827;SDS011;5971;49.646;8.568;2023-02-28T00:14:55;2.15;;;1.98;;
11827;SDS011;5971;49.646;8.568;2023-02-28T00:17:56;2.50;;;2.30;;
11827;SDS011;5971;49.646;8.568;2023-02-28T00:20:58;1.65;;;1.27;;
11827;SDS011;5971;49.646;8.568;2023-02-28T00:24:00;1.70;;;1.50;;
11827;SDS011;5971;49.646;8.568;2023-02-28T00:27:01;3.20;;;1.15;;
11827;SDS011;5971;49.646;8.568;2023-02-28T00:30:03;3.38;;;3.13;;
11827;SDS011;5971;49.646;8.568;2023-02-28T00:33:04;3.97;;;2.90;;
11827;SDS011;5971;49.646;8.568;2023-02-28T00:36:07;1.90;;;1.80;;
11827;SDS011;5971;49.646;8.568;2023-02-28T00:39:08;3.08;;;2.58;;
11827;SDS011;5971;49.646;8.568;2023-02-28T00:42:10;3.03;;;2.70;;
11827;SDS011;5971;49.646;8.568;2023-02-28T00:45:11;1.63;;;1.30;;
11827;SDS011;5971;49.646;8.568;2023-02-28T00:48:12;2.15;;;1.95;;
11827;SDS011;5971;49.646;8.568;2023-02-28T00:51:14;2.70;;;1.90;;
11827;SDS011;5971;49.646;8.568;2023-02-28T00:54:15;2.38;;;2.17;;
11827;SDS011;5971;49.646;8.568;2023-02-28T00:57:17;2.72;;;2.53;;
11827;SDS011;5971;49.646;8.568;2023-02-28T01:00:18;2.03;;;1.83;;
11827;SDS011;5971;49.646;8.568;2023-02-28T01:03:19;2.65;;;2.45;;
11827;SDS011;5971;49.646;8.568;2023-02-28T01:06:21;1.88;;;1.15;;
11827;SDS011;5971;49.646;8.568;2023-02-28T01:09:22;1.58;;;1.48;;
11827;SDS011;5971;49.646;8.568;2023-02-28T01:12:24;1.67;;;1.33;;
11827;SDS011;5971;49.646;8.568;2023-02-28T01:15:25;2.97;;;2.63;;
11827;SDS011;5971;49.646;8.568;2023-02-28T01:18:26;2.22;;;1.95;;
11827;SDS011;5971;49.646;8.568;2023-02-28T01:21:28;2.40;;;2.20;;
11827;SDS011;5971;49.646;8.568;2023-02-28T01:24:31;2.42;;;2.22;;
11827;SDS011;5971;49.646;8.568;2023-02-28T01:27:34;1.90;;;1.73;;
11827;SDS011;5971;49.646;8.568;2023-02-28T01:30:36;2.05;;;1.55;;
11827;SDS011;5971;49.646;8.568;2023-02-28T01:33:38;2.17;;;1.98;;
11827;SDS011;5971;49.646;8.568;2023-02-28T01:36:39;2.33;;;2.13;;
11827;SDS011;5971;49.646;8.568;2023-02-28T01:39:41;3.55;;;3.35;;
11827;SDS011;5971;49.646;8.568;2023-02-28T01:42:42;3.08;;;2.88;;
11827;SDS011;5971;49.646;8.568;2023-02-28T01:45:43;3.70;;;2.72;;
11827;SDS011;5971;49.646;8.568;2023-02-28T01:48:50;2.80;;;2.28;;
11827;SDS011;5971;49.646;8.568;2023-02-28T01:51:53;5.30;;;2.58;;
11827;SDS011;5971;49.646;8.568;2023-02-28T01:54:56;2.30;;;2.10;;
11827;SDS011;5971;49.646;8.568;2023-02-28T01:58:00;1.58;;;1.48;;
11827;SDS011;5971;49.646;8.568;2023-02-28T02:01:03;1.63;;;1.20;;
11827;SDS011;5971;49.646;8.568;2023-02-28T02:04:05;2.25;;;2.05;;
11827;SDS011;5971;49.646;8.568;2023-02-28T02:07:06;4.15;;;3.75;;
11827;SDS011;5971;49.646;8.568;2023-02-28T02:13:23;2.30;;;2.10;;
11827;SDS011;5971;49.646;8.568;2023-02-28T02:29:32;3.72;;;2.22;;
11827;SDS011;5971;49.646;8.568;2023-02-28T02:32:51;2.67;;;2.15;;
11827;SDS011;5971;49.646;8.568;2023-02-28T02:36:07;2.55;;;2.35;;
11827;SDS011;5971;49.646;8.568;2023-02-28T02:39:14;2.58;;;2.33;;
11827;SDS011;5971;49.646;8.568;2023-02-28T02:42:21;2.63;;;1.40;;
11827;SDS011;5971;49.646;8.568;2023-02-28T02:45:25;2.42;;;2.22;;
11827;SDS011;5971;49.646;8.568;2023-02-28T02:48:30;2.28;;;2.08;;
11827;SDS011;5971;49.646;8.568;2023-02-28T02:51:32;1.60;;;1.50;;
11827;SDS011;5971;49.646;8.568;2023-02-28T02:54:35;2.90;;;2.55;;
11827;SDS011;5971;49.646;8.568;2023-02-28T02:57:48;2.22;;;2.03;;
11827;SDS011;5971;49.646;8.568;2023-02-28T03:00:52;3.22;;;2.92;;
11827;SDS011;5971;49.646;8.568;2023-02-28T03:03:55;2.38;;;2.17;;
11827;SDS011;5971;49.646;8.568;2023-02-28T03:06:57;4.22;;;3.85;;
11827;SDS011;5971;49.646;8.568;2023-02-28T03:09:58;2.30;;;2.10;;
11827;SDS011;5971;49.646;8.568;2023-02-28T03:13:49;2.30;;;2.10;;
11827;SDS011;5971;49.646;8.568;2023-02-28T03:22:49;2.58;;;2.38;;
11827;SDS011;5971;49.646;8.568;2023-02-28T03:25:55;2.97;;;2.47;;
11827;SDS011;5971;49.646;8.568;2023-02-28T03:32:08;2.08;;;1.83;;
11827;SDS011;5971;49.646;8.568;2023-02-28T03:35:20;2.33;;;2.13;;
11827;SDS011;5971;49.646;8.568;2023-02-28T03:38:30;3.53;;;2.67;;
11827;SDS011;5971;49.646;8.568;2023-02-28T03:41:35;3.03;;;2.70;;
11827;SDS011;5971;49.646;8.568;2023-02-28T03:44:43;2.75;;;2.35;;
11827;SDS011;5971;49.646;8.568;2023-02-28T03:47:48;5.15;;;2.20;;
11827;SDS011;5971;49.646;8.568;2023-02-28T03:50:53;2.53;;;2.33;;
11827;SDS011;5971;49.646;8.568;2023-02-28T03:53:57;2.70;;;1.95;;
11827;SDS011;5971;49.646;8.568;2023-02-28T03:57:00;2.58;;;2.38;;
11827;SDS011;5971;49.646;8.568;2023-02-28T04:00:14;2.58;;;2.05;;
11827;SDS011;5971;49.646;8.568;2023-02-28T04:03:18;3.33;;;2.33;;
11827;SDS011;5971;49.646;8.568;2023-02-28T04:06:20;1.88;;;1.70;;
11827;SDS011;5971;49.646;8.568;2023-02-28T04:09:22;2.17;;;1.98;;
11827;SDS011;5971;49.646;8.568;2023-02-28T04:12:23;2.20;;;2.00;;
11827;SDS011;5971;49.646;8.568;2023-02-28T04:15:24;2.40;;;2.20;;
11827;SDS011;5971;49.646;8.568;2023-02-28T04:18:28;3.30;;;2.38;;
11827;SDS011;5971;49.646;8.568;2023-02-28T04:21:29;1.80;;;1.70;;
11827;SDS011;5971;49.646;8.568;2023-02-28T04:24:31;2.22;;;2.03;;
11827;SDS011;5971;49.646;8.568;2023-02-28T04:27:33;3.50;;;3.20;;
11827;SDS011;5971;49.646;8.568;2023-02-28T04:30:34;1.88;;;1.77;;
11827;SDS011;5971;49.646;8.568;2023-02-28T04:33:36;3.22;;;2.22;;
11827;SDS011;5971;49.646;8.568;2023-02-28T04:36:37;2.10;;;1.90;;
11827;SDS011;5971;49.646;8.568;2023-02-28T04:39:39;1.83;;;1.40;;
11827;SDS011;5971;49.646;8.568;2023-02-28T04:42:40;2.70;;;2.25;;
11827;SDS011;5971;49.646;8.568;2023-02-28T04:45:42;2.80;;;2.22;;
11827;SDS011;5971;49.646;8.568;2023-02-28T04:48:43;2.35;;;2.15;;
11827;SDS011;5971;49.646;8.568;2023-02-28T04:51:45;3.00;;;2.45;;
11827;SDS011;5971;49.646;8.568;2023-02-28T04:54:46;2.88;;;2.60;;
11827;SDS011;5971;49.646;8.568;2023-02-28T04:57:48;2.28;;;2.08;;
11827;SDS011;5971;49.646;8.568;2023-02-28T05:00:52;2.00;;;1.83;;
11827;SDS011;5971;49.646;8.568;2023-02-28T05:03:54;3.30;;;2.33;;
11827;SDS011;5971;49.646;8.568;2023-02-28T05:06:56;3.75;;;2.33;;
11827;SDS011;5971;49.646;8.568;2023-02-28T05:09:57;3.00;;;2.70;;
11827;SDS011;5971;49.646;8.568;2023-02-28T05:12:58;3.95;;;2.50;;
11827;SDS011;5971;49.646;8.568;2023-02-28T05:16:00;1.58;;;1.48;;
11827;SDS011;5971;49.646;8.568;2023-02-28T05:19:01;2.78;;;2.50;;
11827;SDS011;5971;49.646;8.568;2023-02-28T05:22:03;2.45;;;2.25;;
11827;SDS011;5971;49.646;8.568;2023-02-28T05:25:04;2.88;;;2.15;;
11827;SDS011;5971;49.646;8.568;2023-02-28T05:28:06;4.07;;;3.78;;
11827;SDS011;5971;49.646;8.568;2023-02-28T05:31:09;2.72;;;2.33;;
11827;SDS011;5971;49.646;8.568;2023-02-28T05:34:11;2.88;;;2.33;;
11827;SDS011;5971;49.646;8.568;2023-02-28T05:37:14;4.05;;;2.72;;
11827;SDS011;5971;49.646;8.568;2023-02-28T05:40:16;3.08;;;2.63;;
11827;SDS011;5971;49.646;8.568;2023-02-28T05:43:17;3.20;;;2.50;;
11827;SDS011;5971;49.646;8.568;2023-02-28T05:46:18;2.33;;;2.13;;
11827;SDS011;5971;49.646;8.568;2023-02-28T05:49:20;2.40;;;2.22;;
11827;SDS011;5971;49.646;8.568;2023-02-28T05:52:21;2.50;;;2.20;;
11827;SDS011;5971;49.646;8.568;2023-02-28T05:55:22;2.53;;;2.30;;
11827;SDS011;5971;49.646;8.568;2023-02-28T05:58:24;2.75;;;2.17;;
11827;SDS011;5971;49.646;8.568;2023-02-28T06:01:31;3.35;;;2.35;;
11827;SDS011;5971;49.646;8.568;2023-02-28T06:04:33;3.58;;;2.30;;
11827;SDS011;5971;49.646;8.568;2023-02-28T06:07:34;5.03;;;2.25;;
11827;SDS011;5971;49.646;8.568;2023-02-28T06:10:35;2.47;;;2.10;;
11827;SDS011;5971;49.646;8.568;2023-02-28T06:13:37;3.10;;;2.53;;
11827;SDS011;5971;49.646;8.568;2023-02-28T06:16:38;2.92;;;2.65;;
11827;SDS011;5971;49.646;8.568;2023-02-28T06:19:39;2.15;;;1.85;;
11827;SDS011;5971;49.646;8.568;2023-02-28T06:22:42;3.40;;;2.92;;
11827;SDS011;5971;49.646;8.568;2023-02-28T06:25:47;2.53;;;2.33;;
11827;SDS011;5971;49.646;8.568;2023-02-28T06:28:48;2.95;;;2.67;;
11827;SDS011;5971;49.646;8.568;2023-02-28T06:31:49;2.50;;;2.30;;
11827;SDS011;5971;49.646;8.568;2023-02-28T06:34:51;5.32;;;2.15;;
11827;SDS011;5971;49.646;8.568;2023-02-28T06:37:53;4.38;;;4.07;;
11827;SDS011;5971;49.646;8.568;2023-02-28T06:40:54;2.78;;;2.58;;
11827;SDS011;5971;49.646;8.568;2023-02-28T06:43:56;2.55;;;2.35;;
11827;SDS011;5971;49.646;8.568;2023-02-28T06:46:58;2.45;;;2.20;;
11827;SDS011;5971;49.646;8.568;2023-02-28T06:49:59;2.35;;;2.13;;
11827;SDS011;5971;49.646;8.568;2023-02-28T06:53:02;4.00;;;1.40;;
11827;SDS011;5971;49.646;8.568;2023-02-28T06:56:04;2.72;;;2.53;;
11827;SDS011;5971;49.646;8.568;2023-02-28T06:59:07;2.28;;;1.98;;
11827;SDS011;5971;49.646;8.568;2023-02-28T07:02:08;2.75;;;2.28;;
11827;SDS011;5971;49.646;8.568;2023-02-28T07:05:10;3.05;;;2.33;;
11827;SDS011;5971;49.646;8.568;2023-02-28T07:08:11;2.85;;;2.28;;
11827;SDS011;5971;49.646;8.568;2023-02-28T07:11:12;2.38;;;2.05;;
11827;SDS011;5971;49.646;8.568;2023-02-28T07:14:13;2.67;;;2.47;;
11827;SDS011;5971;49.646;8.568;2023-02-28T07:17:15;2.78;;;2.28;;
11827;SDS011;5971;49.646;8.568;2023-02-28T07:20:16;3.28;;;1.90;;
11827;SDS011;5971;49.646;8.568;2023-02-28T07:23:18;2.53;;;2.28;;
11827;SDS011;5971;49.646;8.568;2023-02-28T07:26:19;2.55;;;1.67;;
11827;SDS011;5971;49.646;8.568;2023-02-28T07:29:21;3.00;;;2.70;;
11827;SDS011;5971;49.646;8.568;2023-02-28T07:32:22;2.65;;;1.98;;
11827;SDS011;5971;49.646;8.568;2023-02-28T07:35:24;4.22;;;2.78;;
11827;SDS011;5971;49.646;8.568;2023-02-28T07:38:25;2.50;;;2.30;;
11827;SDS011;5971;49.646;8.568;2023-02-28T07:41:27;2.25;;;1.67;;
11827;SDS011;5971;49.646;8.568;2023-02-28T07:44:31;3.72;;;3.20;;
11827;SDS011;5971;49.646;8.568;2023-02-28T07:47:32;3.80;;;1.67;;
11827;SDS011;5971;49.646;8.568;2023-02-28T07:50:34;1.92;;;1.25;;
11827;SDS011;5971;49.646;8.568;2023-02-28T07:53:35;2.53;;;2.22;;
11827;SDS011;5971;49.646;8.568;2023-02-28T07:56:36;2.78;;;1.73;;
11827;SDS011;5971;49.646;8.568;2023-02-28T07:59:38;3.30;;;2.42;;
11827;SDS011;5971;49.646;8.568;2023-02-28T08:02:40;5.25;;;2.22;;
11827;SDS011;5971;49.646;8.568;2023-02-28T08:05:42;6.60;;;1.85;;
11827;SDS011;5971;49.646;8.568;2023-02-28T08:08:43;3.55;;;2.70;;
11827;SDS011;5971;49.646;8.568;2023-02-28T08:11:45;3.13;;;1.75;;
11827;SDS011;5971;49.646;8.568;2023-02-28T08:14:46;3.28;;;1.63;;
11827;SDS011;5971;49.646;8.568;2023-02-28T08:17:48;2.92;;;2.03;;
11827;SDS011;5971;49.646;8.568;2023-02-28T08:20:49;2.83;;;1.77;;
11827;SDS011;5971;49.646;8.568;2023-02-28T08:23:50;4.78;;;2.53;;
11827;SDS011;5971;49.646;8.568;2023-02-28T08:26:52;3.47;;;2.35;;
11827;SDS011;5971;49.646;8.568;2023-02-28T08:29:53;3.45;;;2.10;;
11827;SDS011;5971;49.646;8.568;2023-02-28T08:32:55;3.83;;;2.08;;
11827;SDS011;5971;49.646;8.568;2023-02-28T08:35:56;4.53;;;2.97;;
11827;SDS011;5971;49.646;8.568;2023-02-28T08:38:57;3.60;;;2.20;;
11827;SDS011;5971;49.646;8.568;2023-02-28T08:42:00;3.30;;;1.90;;
11827;SDS011;5971;49.646;8.568;2023-02-28T08:45:08;3.38;;;1.60;;
11827;SDS011;5971;49.646;8.568;2023-02-28T08:48:09;4.30;;;2.28;;
11827;SDS011;5971;49.646;8.568;2023-02-28T08:51:15;3.10;;;1.88;;
11827;SDS011;5971;49.646;8.568;2023-02-28T08:54:22;3.70;;;2.20;;
11827;SDS011;5971;49.646;8.568;2023-02-28T08:57:24;3.25;;;1.58;;
11827;SDS011;5971;49.646;8.568;2023-02-28T09:00:27;3.70;;;3.28;;
11827;SDS011;5971;49.646;8.568;2023-02-28T09:03:29;3.72;;;2.92;;
11827;SDS011;5971;49.646;8.568;2023-02-28T09:06:30;4.30;;;2.95;;
11827;SDS011;5971;49.646;8.568;2023-02-28T09:09:33;4.57;;;4.10;;
11827;SDS011;5971;49.646;8.568;2023-02-28T09:12:34;4.05;;;2.28;;
11827;SDS011;5971;49.646;8.568;2023-02-28T09:15:37;7.60;;;2.95;;
11827;SDS011;5971;49.646;8.568;2023-02-28T09:18:39;6.07;;;2.20;;
11827;SDS011;5971;49.646;8.568;2023-02-28T09:21:40;4.40;;;2.08;;
11827;SDS011;5971;49.646;8.568;2023-02-28T09:24:41;5.32;;;3.22;;
11827;SDS011;5971;49.646;8.568;2023-02-28T09:27:43;3.00;;;1.95;;
11827;SDS011;5971;49.646;8.568;2023-02-28T09:30:45;3.30;;;1.90;;
11827;SDS011;5971;49.646;8.568;2023-02-28T09:33:47;4.18;;;2.05;;
11827;SDS011;5971;49.646;8.568;2023-02-28T09:36:49;3.28;;;1.90;;
11827;SDS011;5971;49.646;8.568;2023-02-28T09:39:52;3.40;;;1.95;;
11827;SDS011;5971;49.646;8.568;2023-02-28T09:42:54;4.57;;;2.42;;
11827;SDS011;5971;49.646;8.568;2023-02-28T09:46:00;3.63;;;2.10;;
11827;SDS011;5971;49.646;8.568;2023-02-28T09:49:08;5.65;;;1.58;;
11827;SDS011;5971;49.646;8.568;2023-02-28T09:52:20;4.32;;;1.80;;
11827;SDS011;5971;49.646;8.568;2023-02-28T09:55:30;5.57;;;3.05;;
11827;SDS011;5971;49.646;8.568;2023-02-28T09:58:48;8.25;;;3.10;;
11827;SDS011;5971;49.646;8.568;2023-02-28T10:05:14;4.20;;;2.15;;
11827;SDS011;5971;49.646;8.568;2023-02-28T10:08:17;4.05;;;2.42;;
11827;SDS011;5971;49.646;8.568;2023-02-28T10:11:20;4.15;;;2.47;;
11827;SDS011;5971;49.646;8.568;2023-02-28T10:14:24;5.82;;;3.20;;
11827;SDS011;5971;49.646;8.568;2023-02-28T10:17:27;3.30;;;2.05;;
11827;SDS011;5971;49.646;8.568;2023-02-28T10:20:33;4.68;;;2.80;;
11827;SDS011;5971;49.646;8.568;2023-02-28T10:23:36;4.20;;;2.60;;
11827;SDS011;5971;49.646;8.568;2023-02-28T10:26:38;5.45;;;2.33;;
11827;SDS011;5971;49.646;8.568;2023-02-28T10:29:41;5.13;;;2.55;;
11827;SDS011;5971;49.646;8.568;2023-02-28T10:32:46;6.15;;;2.80;;
11827;SDS011;5971;49.646;8.568;2023-02-28T10:35:48;5.43;;;2.92;;
11827;SDS011;5971;49.646;8.568;2023-02-28T10:38:50;3.75;;;2.38;;
11827;SDS011;5971;49.646;8.568;2023-02-28T10:41:51;4.72;;;2.63;;
11827;SDS011;5971;49.646;8.568;2023-02-28T10:51:16;4.95;;;2.80;;
11827;SDS011;5971;49.646;8.568;2023-02-28T10:54:22;4.05;;;2.33;;
11827;SDS011;5971;49.646;8.568;2023-02-28T10:57:23;6.35;;;3.13;;
11827;SDS011;5971;49.646;8.568;2023-02-28T11:00:25;3.75;;;2.30;;
11827;SDS011;5971;49.646;8.568;2023-02-28T11:03:33;5.70;;;2.78;;
11827;SDS011;5971;49.646;8.568;2023-02-28T11:06:35;3.90;;;2.20;;
11827;SDS011;5971;49.646;8.568;2023-02-28T11:09:40;6.03;;;3.15;;
11827;SDS011;5971;49.646;8.568;2023-02-28T11:12:42;4.63;;;3.10;;
11827;SDS011;5971;49.646;8.568;2023-02-28T11:15:56;5.65;;;3.40;;
11827;SDS011;5971;49.646;8.568;2023-02-28T11:18:58;6.30;;;3.55;;
11827;SDS011;5971;49.646;8.568;2023-02-28T11:22:01;6.57;;;3.17;;
11827;SDS011;5971;49.646;8.568;2023-02-28T11:25:07;5.68;;;2.80;;
11827;SDS011;5971;49.646;8.568;2023-02-28T11:28:23;5.35;;;2.90;;
11827;SDS011;5971;49.646;8.568;2023-02-28T11:31:25;6.30;;;3.80;;
11827;SDS011;5971;49.646;8.568;2023-02-28T11:34:29;6.70;;;3.40;;
11827;SDS011;5971;49.646;8.568;2023-02-28T11:37:30;7.00;;;3.80;;
11827;SDS011;5971;49.646;8.568;2023-02-28T11:40:39;6.60;;;3.30;;
11827;SDS011;5971;49.646;8.568;2023-02-28T11:44:00;5.78;;;3.25;;
11827;SDS011;5971;49.646;8.568;2023-02-28T11:47:14;6.68;;;3.60;;
11827;SDS011;5971;49.646;8.568;2023-02-28T11:50:36;6.78;;;3.53;;
11827;SDS011;5971;49.646;8.568;2023-02-28T11:53:52;5.78;;;3.45;;
11827;SDS011;5971;49.646;8.568;2023-02-28T11:57:50;6.18;;;3.42;;
11827;SDS011;5971;49.646;8.568;2023-02-28T12:00:40;5.93;;;3.00;;
11827;SDS011;5971;49.646;8.568;2023-02-28T12:03:51;5.95;;;3.35;;
11827;SDS011;5971;49.646;8.568;2023-02-28T12:06:59;5.55;;;3.30;;
11827;SDS011;5971;49.646;8.568;2023-02-28T12:10:12;5.72;;;3.45;;
11827;SDS011;5971;49.646;8.568;2023-02-28T12:19:26;6.07;;;3.85;;
11827;SDS011;5971;49.646;8.568;2023-02-28T12:22:37;6.38;;;3.50;;
11827;SDS011;5971;49.646;8.568;2023-02-28T12:32:32;7.03;;;3.35;;
11827;SDS011;5971;49.646;8.568;2023-02-28T12:35:44;5.30;;;3.63;;
11827;SDS011;5971;49.646;8.568;2023-02-28T12:38:47;7.00;;;3.90;;
11827;SDS011;5971;49.646;8.568;2023-02-28T12:45:02;5.88;;;3.72;;
11827;SDS011;5971;49.646;8.568;2023-02-28T12:48:04;5.82;;;3.50;;
11827;SDS011;5971;49.646;8.568;2023-02-28T12:51:07;5.28;;;3.60;;
11827;SDS011;5971;49.646;8.568;2023-02-28T12:54:23;6.40;;;3.85;;
11827;SDS011;5971;49.646;8.568;2023-02-28T12:57:42;5.88;;;3.50;;
11827;SDS011;5971;49.646;8.568;2023-02-28T13:00:48;7.72;;;4.30;;
11827;SDS011;5971;49.646;8.568;2023-02-28T13:10:37;7.65;;;4.13;;
11827;SDS011;5971;49.646;8.568;2023-02-28T13:13:39;6.60;;;3.67;;
11827;SDS011;5971;49.646;8.568;2023-02-28T13:16:51;5.85;;;3.78;;
11827;SDS011;5971;49.646;8.568;2023-02-28T13:22:55;7.25;;;3.92;;
11827;SDS011;5971;49.646;8.568;2023-02-28T13:25:58;5.97;;;3.63;;
11827;SDS011;5971;49.646;8.568;2023-02-28T13:29:01;6.55;;;4.00;;
11827;SDS011;5971;49.646;8.568;2023-02-28T13:41:46;5.88;;;3.60;;
11827;SDS011;5971;49.646;8.568;2023-02-28T13:48:26;6.10;;;3.60;;
11827;SDS011;5971;49.646;8.568;2023-02-28T13:51:40;6.57;;;3.65;;
11827;SDS011;5971;49.646;8.568;2023-02-28T14:07:38;6.85;;;3.92;;
11827;SDS011;5971;49.646;8.568;2023-02-28T14:13:45;6.50;;;3.53;;
11827;SDS011;5971;49.646;8.568;2023-02-28T14:16:48;7.55;;;3.92;;
11827;SDS011;5971;49.646;8.568;2023-02-28T14:19:51;6.05;;;3.88;;
11827;SDS011;5971;49.646;8.568;2023-02-28T14:23:01;6.72;;;4.22;;
11827;SDS011;5971;49.646;8.568;2023-02-28T14:29:52;6.65;;;3.80;;
11827;SDS011;5971;49.646;8.568;2023-02-28T14:32:51;7.07;;;3.75;;
11827;SDS011;5971;49.646;8.568;2023-02-28T14:39:06;6.93;;;3.55;;
11827;SDS011;5971;49.646;8.568;2023-02-28T14:45:32;7.65;;;3.95;;
11827;SDS011;5971;49.646;8.568;2023-02-28T14:48:33;6.30;;;3.47;;
11827;SDS011;5971;49.646;8.568;2023-02-28T14:51:35;7.60;;;4.15;;
11827;SDS011;5971;49.646;8.568;2023-02-28T14:54:37;6.43;;;3.83;;
11827;SDS011;5971;49.646;8.568;2023-02-28T14:57:40;6.93;;;3.85;;
11827;SDS011;5971;49.646;8.568;2023-02-28T15:00:48;6.25;;;3.85;;
11827;SDS011;5971;49.646;8.568;2023-02-28T15:03:59;6.40;;;3.97;;
11827;SDS011;5971;49.646;8.568;2023-02-28T15:07:13;8.73;;;4.20;;
11827;SDS011;5971;49.646;8.568;2023-02-28T15:10:23;6.00;;;3.53;;
11827;SDS011;5971;49.646;8.568;2023-02-28T15:13:26;5.95;;;3.75;;
11827;SDS011;5971;49.646;8.568;2023-02-28T15:16:37;6.75;;;3.75;;
11827;SDS011;5971;49.646;8.568;2023-02-28T15:22:42;6.30;;;3.70;;
11827;SDS011;5971;49.646;8.568;2023-02-28T15:25:44;6.80;;;3.97;;
11827;SDS011;5971;49.646;8.568;2023-02-28T15:28:45;6.45;;;4.03;;
11827;SDS011;5971;49.646;8.568;2023-02-28T15:31:52;6.15;;;3.63;;
11827;SDS011;5971;49.646;8.568;2023-02-28T15:34:59;6.55;;;3.80;;
11827;SDS011;5971;49.646;8.568;2023-02-28T15:38:02;7.18;;;4.00;;
11827;SDS011;5971;49.646;8.568;2023-02-28T15:41:05;6.95;;;4.20;;
11827;SDS011;5971;49.646;8.568;2023-02-28T15:44:28;7.22;;;4.03;;
11827;SDS011;5971;49.646;8.568;2023-02-28T15:47:32;6.95;;;3.72;;
11827;SDS011;5971;49.646;8.568;2023-02-28T15:50:34;5.93;;;3.63;;
11827;SDS011;5971;49.646;8.568;2023-02-28T15:53:37;9.23;;;5.07;;
11827;SDS011;5971;49.646;8.568;2023-02-28T15:56:40;8.38;;;4.50;;
11827;SDS011;5971;49.646;8.568;2023-02-28T15:59:48;8.80;;;4.88;;
11827;SDS011;5971;49.646;8.568;2023-02-28T16:02:50;7.82;;;4.35;;
11827;SDS011;5971;49.646;8.568;2023-02-28T16:09:15;6.95;;;3.85;;
11827;SDS011;5971;49.646;8.568;2023-02-28T16:12:17;8.18;;;3.92;;
11827;SDS011;5971;49.646;8.568;2023-02-28T16:18:20;5.53;;;3.05;;
11827;SDS011;5971;49.646;8.568;2023-02-28T16:21:21;8.63;;;3.58;;
11827;SDS011;5971;49.646;8.568;2023-02-28T16:24:23;5.68;;;4.18;;
11827;SDS011;5971;49.646;8.568;2023-02-28T16:27:27;5.88;;;2.97;;
11827;SDS011;5971;49.646;8.568;2023-02-28T16:30:29;5.95;;;3.15;;
11827;SDS011;5971;49.646;8.568;2023-02-28T16:33:34;5.57;;;2.83;;
11827;SDS011;5971;49.646;8.568;2023-02-28T16:36:35;7.38;;;3.60;;
11827;SDS011;5971;49.646;8.568;2023-02-28T16:39:36;5.25;;;2.58;;
11827;SDS011;5971;49.646;8.568;2023-02-28T16:42:38;4.85;;;2.65;;
11827;SDS011;5971;49.646;8.568;2023-02-28T16:45:39;6.90;;;3.25;;
11827;SDS011;5971;49.646;8.568;2023-02-28T16:48:41;7.25;;;4.07;;
11827;SDS011;5971;49.646;8.568;2023-02-28T16:51:42;6.93;;;2.83;;
11827;SDS011;5971;49.646;8.568;2023-02-28T16:54:43;4.75;;;3.08;;
11827;SDS011;5971;49.646;8.568;2023-02-28T16:57:46;5.75;;;2.80;;
11827;SDS011;5971;49.646;8.568;2023-02-28T17:00:49;6.05;;;3.13;;
11827;SDS011;5971;49.646;8.568;2023-02-28T17:03:50;5.82;;;3.50;;
11827;SDS011;5971;49.646;8.568;2023-02-28T17:06:51;6.88;;;4.15;;
11827;SDS011;5971;49.646;8.568;2023-02-28T17:09:53;8.00;;;2.97;;
11827;SDS011;5971;49.646;8.568;2023-02-28T17:12:54;7.10;;;4.53;;
11827;SDS011;5971;49.646;8.568;2023-02-28T17:19:26;6.75;;;3.85;;
11827;SDS011;5971;49.646;8.568;2023-02-28T17:22:29;8.07;;;3.90;;
11827;SDS011;5971;49.646;8.568;2023-02-28T17:25:30;8.15;;;3.65;;
11827;SDS011;5971;49.646;8.568;2023-02-28T17:28:32;7.72;;;4.45;;
11827;SDS011;5971;49.646;8.568;2023-02-28T17:31:33;7.88;;;4.03;;
11827;SDS011;5971;49.646;8.568;2023-02-28T17:34:41;6.70;;;3.75;;
11827;SDS011;5971;49.646;8.568;2023-02-28T17:37:44;8.45;;;5.20;;
11827;SDS011;5971;49.646;8.568;2023-02-28T17:40:48;9.63;;;4.47;;
11827;SDS011;5971;49.646;8.568;2023-02-28T17:43:49;7.75;;;5.10;;
11827;SDS011;5971;49.646;8.568;2023-02-28T17:46:52;8.63;;;4.45;;
11827;SDS011;5971;49.646;8.568;2023-02-28T17:49:54;4.82;;;3.13;;
11827;SDS011;5971;49.646;8.568;2023-02-28T17:52:56;7.07;;;4.40;;
11827;SDS011;5971;49.646;8.568;2023-02-28T17:55:57;10.88;;;4.47;;
11827;SDS011;5971;49.646;8.568;2023-02-28T17:58:58;8.77;;;5.35;;
11827;SDS011;5971;49.646;8.568;2023-02-28T18:02:00;10.25;;;5.28;;
11827;SDS011;5971;49.646;8.568;2023-02-28T18:05:01;9.05;;;5.32;;
11827;SDS011;5971;49.646;8.568;2023-02-28T18:08:05;8.15;;;4.25;;
11827;SDS011;5971;49.646;8.568;2023-02-28T18:11:06;9.07;;;5.10;;
11827;SDS011;5971;49.646;8.568;2023-02-28T18:17:19;11.10;;;6.90;;
11827;SDS011;5971;49.646;8.568;2023-02-28T18:20:21;9.80;;;5.72;;
11827;SDS011;5971;49.646;8.568;2023-02-28T18:23:22;7.35;;;5.63;;
11827;SDS011;5971;49.646;8.568;2023-02-28T18:26:23;8.35;;;6.25;;
11827;SDS011;5971;49.646;8.568;2023-02-28T18:29:25;9.98;;;5.78;;
11827;SDS011;5971;49.646;8.568;2023-02-28T18:32:28;7.07;;;5.25;;
11827;SDS011;5971;49.646;8.568;2023-02-28T18:35:29;5.63;;;3.83;;
11827;SDS011;5971;49.646;8.568;2023-02-28T18:38:37;6.97;;;4.95;;
11827;SDS011;5971;49.646;8.568;2023-02-28T18:41:39;8.90;;;5.45;;
11827;SDS011;5971;49.646;8.568;2023-02-28T18:44:40;4.80;;;3.40;;
11827;SDS011;5971;49.646;8.568;2023-02-28T18:47:41;6.28;;;4.03;;
11827;SDS011;5971;49.646;8.568;2023-02-28T18:50:43;6.95;;;4.60;;
11827;SDS011;5971;49.646;8.568;2023-02-28T18:53:44;7.20;;;3.92;;
11827;SDS011;5971;49.646;8.568;2023-02-28T18:56:46;9.45;;;5.15;;
11827;SDS011;5971;49.646;8.568;2023-02-28T18:59:47;7.43;;;3.90;;
11827;SDS011;5971;49.646;8.568;2023-02-28T19:02:48;7.53;;;5.20;;
11827;SDS011;5971;49.646;8.568;2023-02-28T19:05:55;4.88;;;3.60;;
11827;SDS011;5971;49.646;8.568;2023-02-28T19:08:58;7.10;;;4.93;;
11827;SDS011;5971;49.646;8.568;2023-02-28T19:11:59;6.18;;;3.00;;
11827;SDS011;5971;49.646;8.568;2023-02-28T19:15:01;7.78;;;3.47;;
11827;SDS011;5971;49.646;8.568;2023-02-28T19:18:03;4.70;;;3.85;;
11827;SDS011;5971;49.646;8.568;2023-02-28T19:21:05;4.72;;;3.67;;
11827;SDS011;5971;49.646;8.568;2023-02-28T19:24:07;11.10;;;5.32;;
11827;SDS011;5971;49.646;8.568;2023-02-28T19:27:08;14.13;;;6.00;;
11827;SDS011;5971;49.646;8.568;2023-02-28T19:30:09;7.03;;;5.50;;
11827;SDS011;5971;49.646;8.568;2023-02-28T19:33:14;8.95;;;5.60;;
11827;SDS011;5971;49.646;8.568;2023-02-28T19:36:16;15.02;;;6.28;;
11827;SDS011;5971;49.646;8.568;2023-02-28T19:39:22;11.93;;;6.18;;
11827;SDS011;5971;49.646;8.568;2023-02-28T19:42:24;10.68;;;6.25;;
11827;SDS011;5971;49.646;8.568;2023-02-28T19:45:28;6.40;;;4.82;;
11827;SDS011;5971;49.646;8.568;2023-02-28T19:48:30;8.00;;;5.18;;
11827;SDS011;5971;49.646;8.568;2023-02-28T19:51:31;9.70;;;6.05;;
11827;SDS011;5971;49.646;8.568;2023-02-28T19:54:34;10.40;;;6.80;;
11827;SDS011;5971;49.646;8.568;2023-02-28T19:57:35;6.70;;;3.58;;
11827;SDS011;5971;49.646;8.568;2023-02-28T20:00:39;7.43;;;4.53;;
11827;SDS011;5971;49.646;8.568;2023-02-28T20:03:41;4.65;;;3.70;;
11827;SDS011;5971;49.646;8.568;2023-02-28T20:06:43;6.85;;;4.97;;
11827;SDS011;5971;49.646;8.568;2023-02-28T20:09:44;6.65;;;4.28;;
11827;SDS011;5971;49.646;8.568;2023-02-28T20:12:46;6.65;;;4.80;;
11827;SDS011;5971;49.646;8.568;2023-02-28T20:15:47;6.20;;;3.80;;
11827;SDS011;5971;49.646;8.568;2023-02-28T20:18:49;8.95;;;4.95;;
11827;SDS011;5971;49.646;8.568;2023-02-28T20:21:53;4.18;;;2.92;;
11827;SDS011;5971;49.646;8.568;2023-02-28T20:24:54;6.90;;;4.25;;
11827;SDS011;5971;49.646;8.568;2023-02-28T20:27:56;6.50;;;4.72;;
11827;SDS011;5971;49.646;8.568;2023-02-28T20:30:57;5.38;;;3.85;;
11827;SDS011;5971;49.646;8.568;2023-02-28T20:34:00;6.22;;;4.05;;
11827;SDS011;5971;49.646;8.568;2023-02-28T20:37:02;6.70;;;2.75;;
11827;SDS011;5971;49.646;8.568;2023-02-28T20:40:03;5.50;;;3.67;;